Laredo International Airport
KLRD : now visible

Airfield :











YOU CAN JOIN US ON...

 
LOGIN :

Register | Disclaimer

   EN    FR    IT 

 









Legend :    VFR   Marginal VFR   IFR   Intensive IFR   Very Intensive IFR
Visi :
Ceiling :
>= 8 km
>= 3000ft
5 to 8 km
1000 to 3000 ft
1500m to 5 km
500 to 1000 ft
800 to 1500m
200 to 500 ft
< 800m
< 200 ft
Symbols :   Thunderstorms  Fog  Heavy snow  Heavy precipitations  Wind > 20 kt






- Airport Elevation : 508 ft
- IATA code : LRD


KLRD - Laredo International

CURRENT METAR :
  • 261339Z 17007KT 6SM OVC016 29/25 A2972 RMK AO2

EXPIRED METARs :
  • 261256Z 16010KT 5SM OVC014 28/24 A2969 RMK AO2 SLP047 T02830244
  • 261156Z 15010KT 5SM OVC014 27/24 A2966 RMK AO2 SLP037 T02720244 10306 20272 53003
  • 261111Z 14011KT 7SM BKN014 27/24 A2965 RMK AO2
  • 261056Z 14011KT 7SM BKN016 27/24 A2964 RMK AO2 SLP032 T02720244
  • 260956Z AUTO 14013KT 9SM BKN018 BKN029 28/24 A2964 RMK AO2 SLP031 T02780239
  • 260925Z AUTO 14013KT 10SM BKN020 28/23 A2965 RMK AO2

TAF KLRD
Valid from the 26 at 12:00 until the 27 at 12:00 UTC


261128Z 2612/2712 14012KT P6SM BKN250
TEMPO 2612/2614 5SM BR OVC015
FM261400 15009KT P6SM SCT250
FM262000 01010KT P6SM SCT250
FM270300 11012KT P6SM SCT015 SCT250
KZHU FIR / North America



MET'MAP, your aeronautical weather chart ! - Copyright ORBIFLY December 2007 - Disclaimer

ORBIFLY MET'MAP TEAM :

Programming & Development : Alexandra Zaïnal
Original concept : Baudouin d'Aumeries
Technical & hardware support : Manuel Goepfert
Assistance : Marc-Olivier Méhu




SOURCES & CREDITS :

   NOAA       Earth
Advisory